Time;durP1;ratioP1;P1;durP2;ratioP2;P2;SDS_P1;SDS_P2;PMS_P1;PMS_P2;Temp;Humidity;BMP_temperature;BMP_pressure;BME280_temperature;BME280_humidity;BME280_pressure;Samples;Min_cycle;Max_cycle;Signal;HPM_P1;HPM_P2
2024/04/09 00:00:49;;;;;;;11.35;5.32;;;13.70;99.30;;;;;;5449913;26;19994;-80
2024/04/09 00:03:19;;;;;;;13.88;6.22;;;;;;;;;;5484718;26;19994;-80
2024/04/09 00:06:14;;;;;;;15.82;6.20;;;13.60;99.30;;;;;;5441262;26;20014;-81
2024/04/09 00:08:55;;;;;;;13.60;6.07;;;13.50;99.90;;;;;;5425975;26;20354;-80
2024/04/09 00:11:53;;;;;;;13.25;5.00;;;13.50;99.80;;;;;;5486378;26;20026;-80
2024/04/09 00:14:50;;;;;;;7.60;4.50;;;13.40;99.90;;;;;;5428724;26;20006;-80
2024/04/09 00:17:45;;;;;;;6.90;4.50;;;13.40;99.90;;;;;;5442004;26;20014;-79
2024/04/09 00:20:23;;;;;;;7.70;4.05;;;13.30;99.90;;;;;;5435386;26;20014;-81
2024/04/09 00:23:23;;;;;;;8.40;4.43;;;13.20;99.90;;;;;;5440430;26;20034;-80
2024/04/09 00:25:53;;;;;;;;;;;13.20;99.90;;;;;;5470375;26;20005;-80
2024/04/09 00:28:33;;;;;;;10.30;4.38;;;13.10;99.90;;;;;;5470419;26;19931;-80
2024/04/09 00:31:13;;;;;;;7.57;3.83;;;13.10;99.90;;;;;;5473761;26;20059;-80
2024/04/09 00:33:46;;;;;;;7.88;3.95;;;13.00;99.90;;;;;;5496021;25;20006;-81
2024/04/09 00:36:18;;;;;;;9.38;4.38;;;13.00;99.90;;;;;;5470643;26;20005;-80
2024/04/09 00:38:56;;;;;;;7.70;4.18;;;13.00;99.90;;;;;;5450076;26;20014;-79
2024/04/09 00:41:37;;;;;;;6.40;3.90;;;12.90;99.90;;;;;;5506799;26;19999;-80
2024/04/09 00:44:15;;;;;;;10.70;4.90;;;12.90;99.90;;;;;;5487565;26;20339;-80
2024/04/09 00:46:53;;;;;;;8.48;4.35;;;12.80;99.90;;;;;;5475950;26;20039;-80
2024/04/09 00:50:04;;;;;;;10.50;4.78;;;12.80;99.90;;;;;;5456431;26;20044;-80
2024/04/09 00:52:51;;;;;;;9.77;3.85;;;12.80;99.90;;;;;;5459683;26;20013;-80
2024/04/09 00:55:25;;;;;;;6.53;4.00;;;12.80;99.90;;;;;;5449273;26;20001;-80
2024/04/09 00:58:09;;;;;;;8.10;4.07;;;12.80;99.90;;;;;;5435273;26;20002;-80
2024/04/09 01:00:44;;;;;;;7.78;3.70;;;12.70;99.90;;;;;;5462581;26;20528;-80
2024/04/09 01:03:14;;;;;;;8.65;4.28;;;12.70;99.90;;;;;;5472641;26;19998;-80
2024/04/09 01:05:46;;;;;;;5.75;3.83;;;12.70;99.90;;;;;;5471329;26;20064;-80
2024/04/09 01:08:13;;;;;;;7.50;4.20;;;12.60;99.90;;;;;;5475219;26;19995;-80
2024/04/09 01:11:01;;;;;;;7.28;3.70;;;12.60;99.90;;;;;;5472399;26;20040;-80
2024/04/09 01:13:28;;;;;;;8.63;4.25;;;12.60;99.90;;;;;;5443845;26;20006;-80
2024/04/09 01:16:15;;;;;;;8.00;4.93;;;12.60;99.90;;;;;;5481135;26;20302;-80
2024/04/09 01:18:59;;;;;;;7.80;4.57;;;12.50;99.90;;;;;;5456615;26;19999;-79
2024/04/09 01:21:32;;;;;;;9.82;4.40;;;12.50;99.90;;;;;;5440076;21;20347;-80
2024/04/09 01:24:08;;;;;;;11.57;4.93;;;12.50;99.90;;;;;;5414545;26;20000;-80
2024/04/09 01:26:41;;;;;;;7.97;4.43;;;12.40;99.90;;;;;;5413557;26;20314;-80
2024/04/09 01:29:14;;;;;;;11.00;4.57;;;12.40;99.90;;;;;;5410647;26;20293;-80
2024/04/09 01:31:43;;;;;;;8.63;4.35;;;12.40;99.90;;;;;;5410722;26;20006;-80
2024/04/09 01:34:21;;;;;;;6.70;4.43;;;12.40;99.90;;;;;;5388300;26;20012;-80
2024/04/09 01:36:50;;;;;;;;;;;12.40;99.90;;;;;;5394396;26;20007;-79
2024/04/09 01:39:21;;;;;;;7.30;4.05;;;12.30;99.90;;;;;;5391199;26;19981;-79
2024/04/09 01:42:09;;;;;;;9.13;4.28;;;12.30;99.90;;;;;;5397842;26;20007;-80
2024/04/09 01:44:44;;;;;;;11.13;4.70;;;12.20;99.90;;;;;;5398535;26;20017;-80
2024/04/09 01:47:11;;;;;;;6.75;4.28;;;12.20;99.90;;;;;;5400163;26;20000;-81
2024/04/09 01:49:42;;;;;;;8.05;4.40;;;12.20;99.90;;;;;;5404006;26;20061;-80
2024/04/09 01:52:19;;;;;;;8.13;4.22;;;12.20;99.90;;;;;;5403703;26;20007;-80
2024/04/09 01:54:52;;;;;;;7.68;4.07;;;12.10;99.90;;;;;;5397261;26;19996;-79
2024/04/09 01:57:23;;;;;;;9.18;4.25;;;12.10;99.90;;;;;;5353320;26;20011;-79
2024/04/09 02:00:11;;;;;;;5.13;4.15;;;12.10;99.90;;;;;;5412679;26;20002;-80
2024/04/09 02:02:42;;;;;;;7.47;4.32;;;12.00;99.90;;;;;;5413954;26;20003;-79
2024/04/09 02:05:18;;;;;;;10.35;4.18;;;12.00;99.90;;;;;;5379884;26;20189;-80
2024/04/09 02:07:52;;;;;;;6.00;4.15;;;11.90;99.90;;;;;;5385357;26;20012;-81
2024/04/09 02:10:25;;;;;;;8.60;3.72;;;11.90;99.90;;;;;;5386447;26;20008;-80
2024/04/09 02:13:03;;;;;;;10.20;4.18;;;11.90;99.90;;;;;;5395609;26;20012;-80
2024/04/09 02:15:39;;;;;;;5.38;3.30;;;11.90;99.90;;;;;;5401901;26;20408;-80
2024/04/09 02:18:28;;;;;;;6.65;3.90;;;11.90;99.90;;;;;;5398168;26;20008;-80
2024/04/09 02:21:07;;;;;;;6.40;3.55;;;11.80;99.90;;;;;;5394027;26;20293;-80
2024/04/09 02:23:59;;;;;;;6.70;3.50;;;11.70;99.90;;;;;;5406675;26;20003;-80
2024/04/09 02:26:36;;;;;;;4.87;3.13;;;11.70;99.90;;;;;;5392843;26;20069;-80
2024/04/09 02:29:23;;;;;;;4.88;3.80;;;11.70;99.90;;;;;;5400818;26;20008;-80
2024/04/09 02:31:55;;;;;;;6.50;3.78;;;11.60;99.90;;;;;;5412116;26;20001;-80
2024/04/09 02:34:28;;;;;;;5.47;3.70;;;11.60;99.90;;;;;;5383613;26;20000;-80
2024/04/09 02:37:01;;;;;;;6.95;4.00;;;11.60;99.90;;;;;;5375499;26;20012;-80
2024/04/09 02:39:48;;;;;;;;;;;;;;;;;;;;;
2024/04/09 02:42:16;;;;;;;7.60;3.58;;;11.60;99.90;;;;;;5413636;26;20695;-79
2024/04/09 02:44:58;;;;;;;7.75;3.90;;;11.60;99.90;;;;;;5379423;26;20004;-81
2024/04/09 02:47:26;;;;;;;8.35;3.97;;;11.50;99.90;;;;;;5385707;26;20005;-79
2024/04/09 02:50:12;;;;;;;6.90;4.10;;;11.50;99.90;;;;;;5396347;26;20023;-80
2024/04/09 02:52:42;;;;;;;9.88;3.88;;;11.50;99.90;;;;;;5386222;26;20000;-79
2024/04/09 02:55:15;;;;;;;7.28;3.78;;;11.50;99.90;;;;;;5393569;26;20009;-80
2024/04/09 02:57:50;;;;;;;;;;;11.50;99.90;;;;;;5391268;26;20326;-80
2024/04/09 03:00:24;;;;;;;6.20;3.35;;;11.40;99.90;;;;;;5393518;26;19925;-81
2024/04/09 03:03:09;;;;;;;5.18;3.72;;;11.40;99.90;;;;;;5397405;26;20014;-80
2024/04/09 03:05:42;;;;;;;5.60;3.80;;;11.40;99.90;;;;;;5405601;26;20003;-79
2024/04/09 03:08:20;;;;;;;8.80;3.80;;;11.40;99.90;;;;;;5407316;26;20010;-80
2024/04/09 03:10:51;;;;;;;6.68;4.00;;;11.30;99.90;;;;;;5382562;26;20009;-80
2024/04/09 03:13:28;;;;;;;5.10;3.50;;;11.40;99.90;;;;;;5386132;26;20016;-80
2024/04/09 03:16:20;;;;;;;8.07;3.83;;;11.30;99.90;;;;;;5383168;26;20010;-80
2024/04/09 03:19:02;;;;;;;6.57;3.90;;;11.30;99.90;;;;;;5384073;26;20000;-79
2024/04/09 03:22:05;;;;;;;5.60;3.53;;;11.30;99.90;;;;;;5393986;26;20000;-80
2024/04/09 03:24:53;;;;;;;6.78;3.83;;;11.30;99.90;;;;;;5394133;26;20019;-80
2024/04/09 03:27:29;;;;;;;5.93;3.70;;;11.30;99.90;;;;;;5403779;26;20007;-80
2024/04/09 03:30:09;;;;;;;7.28;3.58;;;11.20;99.90;;;;;;5407649;26;19996;-80
2024/04/09 03:32:48;;;;;;;4.50;3.42;;;11.20;99.90;;;;;;5401540;26;20004;-80
2024/04/09 03:35:24;;;;;;;5.35;3.42;;;11.20;99.90;;;;;;5394948;26;20000;-80
2024/04/09 03:38:07;;;;;;;10.20;3.60;;;11.20;99.90;;;;;;5400485;26;20007;-79
2024/04/09 03:40:57;;;;;;;8.93;3.80;;;11.10;99.90;;;;;;5397211;26;20024;-80
2024/04/09 03:43:25;;;;;;;6.15;3.35;;;11.10;99.90;;;;;;5404697;26;20007;-79
2024/04/09 03:46:18;;;;;;;6.90;3.45;;;11.10;99.90;;;;;;5402116;26;19995;-80
2024/04/09 03:48:52;;;;;;;7.35;4.10;;;11.10;99.90;;;;;;5387430;26;20035;-79
2024/04/09 03:52:04;;;;;;;7.90;3.58;;;11.10;99.90;;;;;;5381534;26;20305;-79
2024/04/09 03:54:31;;;;;;;4.50;3.15;;;11.10;99.90;;;;;;5382959;26;20004;-79
2024/04/09 03:57:03;;;;;;;4.28;3.42;;;11.10;99.90;;;;;;5384011;26;20040;-80
2024/04/09 03:59:34;;;;;;;8.13;3.83;;;11.10;99.90;;;;;;5380485;26;19997;-80
2024/04/09 04:02:01;;;;;;;6.18;3.60;;;11.00;99.90;;;;;;5389751;26;20004;-79
2024/04/09 04:04:38;;;;;;;8.98;3.92;;;11.00;99.90;;;;;;5399995;26;20006;-79
2024/04/09 04:07:05;;;;;;;4.13;3.30;;;11.00;99.90;;;;;;5391300;26;19995;-79
2024/04/09 04:09:55;;;;;;;7.32;4.10;;;11.00;99.90;;;;;;5371946;26;19996;-80
2024/04/09 04:12:35;;;;;;;4.65;3.38;;;11.00;99.90;;;;;;5368185;26;20014;-81
2024/04/09 04:15:07;;;;;;;9.38;3.97;;;11.00;99.90;;;;;;5403655;26;20011;-77
2024/04/09 04:17:42;;;;;;;7.88;4.28;;;11.00;99.90;;;;;;5369189;26;20012;-78
2024/04/09 04:20:23;;;;;;;93.80;40.65;;;10.90;99.90;;;;;;5403037;26;20007;-77
2024/04/09 04:23:03;;;;;;;14.52;7.80;;;11.00;99.90;;;;;;5406468;26;20003;-79
2024/04/09 04:25:39;;;;;;;7.18;3.75;;;11.00;99.90;;;;;;5382054;26;23445;-78
2024/04/09 04:28:09;;;;;;;8.63;4.18;;;10.90;99.90;;;;;;5400193;26;20040;-77
2024/04/09 04:30:49;;;;;;;8.63;3.85;;;10.90;99.90;;;;;;5387687;26;20000;-78
2024/04/09 04:33:16;;;;;;;7.10;3.65;;;10.90;99.90;;;;;;5399170;26;20000;-78
2024/04/09 04:35:46;;;;;;;9.40;4.22;;;10.90;99.90;;;;;;5407776;26;20046;-78
2024/04/09 04:38:16;;;;;;;11.48;3.97;;;10.90;99.90;;;;;;5393778;26;20067;-77
2024/04/09 04:40:49;;;;;;;10.45;4.40;;;10.90;99.90;;;;;;5398037;26;20004;-77
2024/04/09 04:43:19;;;;;;;;;;;10.90;99.90;;;;;;5403530;26;20474;-77
2024/04/09 04:45:55;;;;;;;12.07;4.43;;;10.90;99.90;;;;;;5392143;26;20005;-77
2024/04/09 04:48:28;;;;;;;10.27;4.80;;;10.90;99.90;;;;;;5398856;26;20004;-78
2024/04/09 04:51:02;;;;;;;8.60;4.78;;;10.90;99.90;;;;;;5396157;26;19999;-78
2024/04/09 04:53:34;;;;;;;8.38;3.97;;;10.90;99.90;;;;;;5395487;26;20003;-78
2024/04/09 04:56:01;;;;;;;6.35;3.70;;;11.00;99.90;;;;;;5391898;26;20016;-78
2024/04/09 04:58:34;;;;;;;7.75;3.88;;;11.00;99.90;;;;;;5389105;26;20051;-78
2024/04/09 05:01:05;;;;;;;10.00;3.83;;;11.00;99.90;;;;;;5357372;26;20362;-78
2024/04/09 05:03:46;;;;;;;9.57;3.60;;;11.00;99.90;;;;;;5406885;26;20004;-78
2024/04/09 05:06:27;;;;;;;10.30;4.15;;;11.00;99.90;;;;;;5406999;26;20472;-78
2024/04/09 05:09:07;;;;;;;8.05;3.50;;;11.00;99.90;;;;;;5412429;26;20493;-78
2024/04/09 05:11:40;;;;;;;12.75;4.22;;;11.10;99.90;;;;;;5413753;26;20004;-77
2024/04/09 05:14:22;;;;;;;7.97;3.63;;;11.10;99.90;;;;;;5384580;26;20004;-78
2024/04/09 05:16:51;;;;;;;6.57;3.75;;;11.10;99.90;;;;;;5388120;26;20000;-78
2024/04/09 05:19:18;;;;;;;10.80;3.75;;;11.10;99.90;;;;;;5383718;26;20357;-78
2024/04/09 05:21:46;;;;;;;8.07;4.22;;;11.20;99.90;;;;;;5394448;26;20024;-78
2024/04/09 05:24:13;;;;;;;8.82;4.05;;;11.20;99.90;;;;;;5399138;26;20326;-78
2024/04/09 05:26:42;;;;;;;9.63;3.38;;;11.30;99.90;;;;;;5393528;26;20036;-78
2024/04/09 05:29:09;;;;;;;10.73;3.78;;;11.30;99.90;;;;;;5400561;26;20007;-78
2024/04/09 05:31:36;;;;;;;14.88;4.03;;;11.40;99.90;;;;;;5400341;26;19996;-78
2024/04/09 05:34:03;;;;;;;6.22;3.70;;;11.50;99.90;;;;;;5396599;26;20062;-78
2024/04/09 05:36:32;;;;;;;7.75;3.50;;;11.60;99.90;;;;;;5390939;26;20000;-79
2024/04/09 05:39:03;;;;;;;6.78;3.65;;;11.60;99.90;;;;;;5391994;26;20444;-79
2024/04/09 05:41:30;;;;;;;6.18;3.70;;;11.70;99.90;;;;;;5390123;26;20041;-79
2024/04/09 05:43:57;;;;;;;7.05;3.60;;;11.80;99.90;;;;;;5383871;26;20008;-79
2024/04/09 05:46:24;;;;;;;10.48;3.90;;;11.90;99.90;;;;;;5382279;26;20004;-79
2024/04/09 05:48:51;;;;;;;7.90;3.78;;;12.00;99.90;;;;;;5378705;26;20004;-79
2024/04/09 05:51:19;;;;;;;8.57;3.60;;;12.00;99.90;;;;;;5388592;26;20019;-81
2024/04/09 05:53:46;;;;;;;7.47;3.95;;;12.20;99.90;;;;;;5394275;26;20491;-80
2024/04/09 05:56:13;;;;;;;10.23;4.00;;;12.20;99.90;;;;;;5381511;26;20004;-80
2024/04/09 05:58:40;;;;;;;13.00;3.50;;;12.30;99.90;;;;;;5388359;26;20007;-79
2024/04/09 06:01:08;;;;;;;12.45;3.53;;;12.40;99.80;;;;;;5394276;26;20040;-79
2024/04/09 06:03:35;;;;;;;9.35;3.92;;;12.40;99.90;;;;;;5383553;26;20012;-80
2024/04/09 06:06:02;;;;;;;11.98;3.67;;;12.50;99.30;;;;;;5395737;26;20074;-80
2024/04/09 06:08:29;;;;;;;6.72;3.30;;;12.60;99.00;;;;;;5395634;26;20004;-80
2024/04/09 06:10:57;;;;;;;6.97;3.80;;;12.60;99.20;;;;;;5397357;26;20016;-80
2024/04/09 06:13:24;;;;;;;9.00;4.10;;;12.70;99.10;;;;;;5392208;26;20021;-81
2024/04/09 06:15:51;;;;;;;7.75;3.85;;;12.80;99.10;;;;;;5393822;26;20003;-80
2024/04/09 06:18:18;;;;;;;10.82;3.80;;;12.90;98.50;;;;;;5382230;26;20303;-80
2024/04/09 06:20:46;;;;;;;8.73;3.63;;;13.00;98.60;;;;;;5409355;26;20004;-80
2024/04/09 06:23:13;;;;;;;7.82;3.85;;;13.10;98.80;;;;;;5399216;26;20081;-81
2024/04/09 06:25:40;;;;;;;10.02;3.78;;;13.20;98.60;;;;;;5401138;26;20036;-80
2024/04/09 06:28:07;;;;;;;13.88;4.00;;;13.30;98.00;;;;;;5413070;26;20000;-80
2024/04/09 06:30:36;;;;;;;11.10;3.85;;;13.40;97.70;;;;;;5398551;26;20003;-81
2024/04/09 06:33:03;;;;;;;11.02;4.57;;;13.60;97.70;;;;;;5389230;26;20004;-81
2024/04/09 06:35:30;;;;;;;12.98;3.53;;;13.70;97.00;;;;;;5403102;26;20007;-81
2024/04/09 06:37:57;;;;;;;9.13;3.95;;;13.90;96.70;;;;;;5405189;26;20069;-81
2024/04/09 06:40:25;;;;;;;14.48;3.90;;;14.00;95.80;;;;;;5400504;26;20353;-81
2024/04/09 06:42:52;;;;;;;12.43;3.33;;;14.00;95.10;;;;;;5401252;26;19996;-81
2024/04/09 06:45:19;;;;;;;11.35;3.50;;;14.10;95.10;;;;;;5394008;26;20005;-81
2024/04/09 06:47:46;;;;;;;6.88;3.03;;;14.20;94.40;;;;;;5396290;26;19997;-81
2024/04/09 06:50:15;;;;;;;14.55;3.45;;;14.40;94.00;;;;;;5399941;26;19999;-81
2024/04/09 06:52:42;;;;;;;11.70;3.38;;;14.50;93.90;;;;;;5387616;26;20000;-81
2024/04/09 06:55:10;;;;;;;4.68;2.95;;;14.70;92.90;;;;;;5386940;26;20068;-81
2024/04/09 06:57:37;;;;;;;10.80;2.90;;;14.80;92.60;;;;;;5399348;26;20070;-81
2024/04/09 07:00:07;;;;;;;16.17;3.47;;;15.00;92.80;;;;;;5396905;26;20035;-81
2024/04/09 07:02:34;;;;;;;7.60;3.53;;;15.20;92.30;;;;;;5411867;26;20014;-81
2024/04/09 07:05:02;;;;;;;10.48;3.55;;;15.40;92.00;;;;;;5414973;26;20006;-81
2024/04/09 07:07:29;;;;;;;10.07;3.70;;;15.50;90.10;;;;;;5406801;26;20028;-81
2024/04/09 07:09:56;;;;;;;14.55;3.92;;;15.70;90.40;;;;;;5384777;26;20011;-81
2024/04/09 07:12:23;;;;;;;10.10;3.50;;;15.90;90.70;;;;;;5385770;26;20301;-82
2024/04/09 07:14:50;;;;;;;6.43;3.25;;;16.10;91.40;;;;;;5386833;26;20008;-82
2024/04/09 07:17:17;;;;;;;7.82;3.35;;;16.30;86.60;;;;;;5391552;26;20067;-81
2024/04/09 07:19:45;;;;;;;8.88;3.03;;;16.40;81.80;;;;;;5392446;26;20008;-82
2024/04/09 07:22:12;;;;;;;7.10;3.35;;;16.60;81.80;;;;;;5396377;26;20007;-81
2024/04/09 07:24:42;;;;;;;9.43;3.30;;;16.70;81.50;;;;;;5395588;26;20011;-81
2024/04/09 07:27:09;;;;;;;12.00;3.13;;;16.80;81.50;;;;;;5396606;26;20007;-81
2024/04/09 07:29:37;;;;;;;6.97;3.42;;;17.00;81.60;;;;;;5402653;26;20008;-82
2024/04/09 07:32:06;;;;;;;13.63;3.53;;;17.20;81.70;;;;;;5388781;26;20714;-82
2024/04/09 07:34:35;;;;;;;11.05;3.47;;;17.30;81.00;;;;;;5384325;26;19996;-82
2024/04/09 07:37:02;;;;;;;12.65;2.90;;;17.50;78.90;;;;;;5394923;26;20011;-81
2024/04/09 07:39:29;;;;;;;11.30;2.85;;;17.70;77.40;;;;;;5382291;26;20000;-82
2024/04/09 07:41:57;;;;;;;10.52;3.33;;;17.80;74.40;;;;;;5378578;26;20000;-82
2024/04/09 07:44:24;;;;;;;4.72;2.95;;;18.00;74.20;;;;;;5409743;26;20451;-82
2024/04/09 07:46:52;;;;;;;9.50;3.15;;;18.10;70.40;;;;;;5399007;26;20381;-81
2024/04/09 07:49:19;;;;;;;11.65;3.45;;;18.20;69.90;;;;;;5408477;26;20432;-82
2024/04/09 07:51:46;;;;;;;9.13;2.70;;;18.30;68.80;;;;;;5409689;26;19999;-82
2024/04/09 07:54:13;;;;;;;5.80;2.67;;;18.30;67.80;;;;;;5405971;26;20040;-82
2024/04/09 07:56:42;;;;;;;7.55;3.25;;;18.30;68.10;;;;;;5403077;26;20011;-82
2024/04/09 07:59:11;;;;;;;10.27;3.65;;;18.40;68.60;;;;;;5398912;26;19996;-82
2024/04/09 08:01:38;;;;;;;10.82;3.60;;;18.50;69.40;;;;;;5398331;26;20078;-82
2024/04/09 08:04:05;;;;;;;8.27;3.00;;;18.60;68.80;;;;;;5403470;26;20011;-82
2024/04/09 08:06:33;;;;;;;6.25;2.83;;;18.80;68.40;;;;;;5392944;26;20428;-82
2024/04/09 08:09:01;;;;;;;10.50;3.20;;;19.00;67.10;;;;;;5392956;26;20011;-82
2024/04/09 08:11:28;;;;;;;10.57;2.85;;;19.10;66.70;;;;;;5410410;26;19999;-82
2024/04/09 08:13:55;;;;;;;7.70;3.22;;;19.30;65.50;;;;;;5399661;26;20004;-82
2024/04/09 08:16:22;;;;;;;8.60;3.28;;;19.40;64.60;;;;;;5406821;26;20408;-82
2024/04/09 08:18:49;;;;;;;7.47;3.20;;;19.50;63.50;;;;;;5388829;26;20000;-82
2024/04/09 08:21:16;;;;;;;7.38;3.97;;;19.60;64.50;;;;;;5381705;26;20980;-82
2024/04/09 08:23:49;;;;;;;13.27;4.05;;;19.80;65.10;;;;;;5408192;26;20316;-82
2024/04/09 08:26:16;;;;;;;13.30;4.53;;;19.90;64.80;;;;;;5401259;26;20312;-82
2024/04/09 08:28:43;;;;;;;11.57;4.97;;;20.00;64.00;;;;;;5409126;26;20000;-82
2024/04/09 08:31:14;;;;;;;9.05;4.97;;;20.20;62.50;;;;;;5388985;26;20434;-82
2024/04/09 08:33:41;;;;;;;12.38;4.72;;;20.30;63.90;;;;;;5400197;26;20409;-82
2024/04/09 08:36:08;;;;;;;12.10;5.20;;;20.50;64.80;;;;;;5399816;26;19999;-82
2024/04/09 08:38:35;;;;;;;10.57;5.13;;;20.70;64.90;;;;;;5394103;26;20015;-83
2024/04/09 08:41:07;;;;;;;11.73;5.10;;;20.90;64.20;;;;;;5399868;26;20002;-83
2024/04/09 08:43:35;;;;;;;16.92;6.25;;;21.10;65.10;;;;;;5394890;26;20020;-82
2024/04/09 08:46:04;;;;;;;10.10;4.90;;;21.30;61.70;;;;;;5404368;26;20035;-82
2024/04/09 08:48:32;;;;;;;11.77;5.32;;;21.50;61.80;;;;;;5407848;26;20016;-83
2024/04/09 08:51:01;;;;;;;22.38;4.90;;;21.70;62.20;;;;;;5405602;26;20335;-83
2024/04/09 08:53:32;;;;;;;16.83;6.25;;;22.00;62.90;;;;;;5385698;26;20047;-83
2024/04/09 08:56:00;;;;;;;11.10;6.07;;;22.20;59.40;;;;;;5383624;26;19996;-83
2024/04/09 08:58:27;;;;;;;14.20;5.43;;;22.40;60.10;;;;;;5377803;26;19997;-83
2024/04/09 09:00:54;;;;;;;16.52;5.78;;;22.60;59.00;;;;;;5394123;26;20297;-83
2024/04/09 09:03:21;;;;;;;12.85;5.97;;;22.90;59.30;;;;;;5411488;26;20018;-83
2024/04/09 09:06:00;;;;;;;8.85;4.82;;;23.20;58.50;;;;;;5382416;26;20007;-83
2024/04/09 09:08:38;;;;;;;14.48;5.60;;;23.50;58.20;;;;;;5384277;26;20000;-83
2024/04/09 09:11:05;;;;;;;12.30;5.57;;;23.70;57.20;;;;;;5396804;26;20007;-83
2024/04/09 09:13:33;;;;;;;15.18;4.95;;;23.80;55.20;;;;;;5396081;26;20084;-83
2024/04/09 09:16:00;;;;;;;14.65;4.32;;;23.90;55.30;;;;;;5398475;26;20008;-83
2024/04/09 09:18:27;;;;;;;6.82;3.85;;;24.10;56.80;;;;;;5400492;26;20080;-83
2024/04/09 09:21:02;;;;;;;9.30;3.75;;;24.30;54.30;;;;;;5391993;26;20031;-83
2024/04/09 09:23:29;;;;;;;10.90;3.67;;;24.50;56.20;;;;;;5398026;26;19997;-83
2024/04/09 09:25:59;;;;;;;7.72;3.70;;;24.60;52.60;;;;;;5390481;26;19996;-83
2024/04/09 09:28:28;;;;;;;6.57;3.20;;;24.70;52.40;;;;;;5386203;26;20001;-83
2024/04/09 09:30:58;;;;;;;10.73;3.45;;;24.80;54.30;;;;;;5383724;26;20012;-84
2024/04/09 09:33:29;;;;;;;12.18;3.50;;;24.90;54.00;;;;;;5401414;26;20069;-84
2024/04/09 09:35:57;;;;;;;10.23;3.20;;;24.90;51.70;;;;;;5416809;26;20014;-83
2024/04/09 09:38:26;;;;;;;13.80;4.00;;;24.90;51.90;;;;;;5413802;26;19995;-83
2024/04/09 09:40:57;;;;;;;8.63;3.22;;;25.00;50.90;;;;;;5407597;26;19995;-84
2024/04/09 09:43:26;;;;;;;5.47;2.90;;;25.10;50.90;;;;;;5400969;26;20015;-83
2024/04/09 09:45:54;;;;;;;13.57;3.80;;;25.30;51.40;;;;;;5396851;26;20011;-84
2024/04/09 09:48:25;;;;;;;6.90;3.42;;;25.60;51.00;;;;;;5394516;26;20023;-84
2024/04/09 09:50:53;;;;;;;9.23;3.00;;;25.90;51.20;;;;;;5397705;26;20010;-83
2024/04/09 09:53:21;;;;;;;10.32;3.22;;;26.10;49.40;;;;;;5391805;26;20302;-84
2024/04/09 09:55:55;;;;;;;8.25;2.90;;;26.20;49.30;;;;;;5394715;26;20001;-84
2024/04/09 09:58:30;;;;;;;8.27;2.67;;;26.40;48.70;;;;;;5394833;26;20082;-82
2024/04/09 10:01:02;;;;;;;6.80;3.00;;;26.40;49.10;;;;;;5392642;26;20237;-85
2024/04/09 10:03:34;;;;;;;16.20;3.78;;;26.60;48.50;;;;;;5394458;26;20004;-84
2024/04/09 10:06:05;;;;;;;9.75;2.95;;;26.70;48.70;;;;;;5388374;26;20008;-84
2024/04/09 10:08:32;;;;;;;9.48;3.63;;;26.90;49.00;;;;;;5402647;26;20063;-84
2024/04/09 10:11:03;;;;;;;15.02;3.50;;;27.10;48.60;;;;;;5381351;26;20029;-84
2024/04/09 10:13:31;;;;;;;12.95;3.08;;;27.40;48.40;;;;;;5411073;26;20307;-84
2024/04/09 10:16:00;;;;;;;12.68;3.58;;;27.50;48.30;;;;;;5400709;26;20004;-84
2024/04/09 10:18:28;;;;;;;7.60;3.83;;;27.50;47.70;;;;;;5383681;26;20012;-85
2024/04/09 10:20:56;;;;;;;8.48;3.90;;;27.70;48.90;;;;;;5402628;26;20000;-83
2024/04/09 10:23:23;;;;;;;9.82;3.38;;;27.70;49.70;;;;;;5388438;26;20341;-84
2024/04/09 10:25:50;;;;;;;8.52;3.33;;;27.90;49.70;;;;;;5412732;26;20066;-83
2024/04/09 10:28:28;;;;;;;5.03;2.60;;;28.20;47.50;;;;;;5397384;26;20078;-84
2024/04/09 10:31:02;;;;;;;4.80;2.67;;;28.70;47.60;;;;;;5393814;26;20004;-85
2024/04/09 10:33:32;;;;;;;5.53;2.30;;;28.90;43.90;;;;;;5399282;26;20276;-84
2024/04/09 10:36:04;;;;;;;13.45;2.83;;;29.00;44.60;;;;;;5388833;26;20004;-85
2024/04/09 10:38:33;;;;;;;9.57;2.25;;;29.20;43.80;;;;;;5399437;26;20016;-85
2024/04/09 10:41:01;;;;;;;4.00;2.30;;;29.30;42.60;;;;;;5385209;26;20011;-85
2024/04/09 10:43:29;;;;;;;6.45;2.60;;;29.30;42.60;;;;;;5393219;26;20006;-85
2024/04/09 10:45:56;;;;;;;9.25;3.08;;;29.20;43.00;;;;;;5396367;26;20016;-84
2024/04/09 10:48:39;;;;;;;4.60;2.13;;;29.30;43.10;;;;;;5390883;26;20003;-84
2024/04/09 10:51:09;;;;;;;9.75;2.65;;;29.50;45.60;;;;;;5380620;26;20012;-85
2024/04/09 10:53:36;;;;;;;3.80;2.08;;;29.80;44.80;;;;;;5380103;26;20026;-84
2024/04/09 10:56:04;;;;;;;6.88;2.50;;;29.90;44.30;;;;;;5380232;26;20067;-85
2024/04/09 10:58:36;;;;;;;4.32;2.15;;;30.10;44.00;;;;;;5387598;26;19999;-86
2024/04/09 11:01:05;;;;;;;11.90;2.45;;;30.20;43.70;;;;;;5406356;26;19996;-83
2024/04/09 11:03:33;;;;;;;9.95;2.58;;;30.40;43.20;;;;;;5399428;26;20011;-84
2024/04/09 11:06:02;;;;;;;6.47;2.55;;;30.70;42.40;;;;;;5396187;26;20019;-85
2024/04/09 11:08:32;;;;;;;12.68;2.45;;;30.70;41.70;;;;;;5395851;26;20079;-84
2024/04/09 11:11:01;;;;;;;8.25;2.33;;;30.90;43.30;;;;;;5399348;26;20000;-85
2024/04/09 11:13:32;;;;;;;6.47;1.80;;;31.10;43.40;;;;;;5398502;26;20387;-85
2024/04/09 11:16:02;;;;;;;6.10;2.40;;;31.50;40.80;;;;;;5392114;26;20008;-85
2024/04/09 11:18:30;;;;;;;9.35;2.72;;;31.80;39.00;;;;;;5405299;26;20032;-86
2024/04/09 11:20:59;;;;;;;10.52;2.88;;;32.10;40.20;;;;;;5392389;26;20023;-85
2024/04/09 11:23:31;;;;;;;9.43;3.13;;;32.40;41.10;;;;;;5395672;26;20036;-85
2024/04/09 11:26:01;;;;;;;7.93;2.78;;;32.50;39.60;;;;;;5386044;26;20012;-85
2024/04/09 11:28:30;;;;;;;6.85;2.70;;;32.50;39.20;;;;;;5408348;26;20003;-84
2024/04/09 11:31:04;;;;;;;11.80;2.80;;;32.60;39.70;;;;;;5397523;26;20019;-84
2024/04/09 11:33:31;;;;;;;9.30;2.90;;;32.80;40.50;;;;;;5399944;26;20003;-84
2024/04/09 11:35:59;;;;;;;9.93;2.92;;;33.00;38.90;;;;;;5398479;26;20012;-81
2024/04/09 11:38:36;;;;;;;8.70;3.13;;;33.20;38.80;;;;;;5387975;26;20014;-82
2024/04/09 11:41:03;;;;;;;10.00;2.70;;;33.50;38.60;;;;;;5393865;26;20685;-82
2024/04/09 11:43:33;;;;;;;10.70;2.70;;;33.70;38.00;;;;;;5395185;26;20012;-82
2024/04/09 11:46:01;;;;;;;10.60;2.80;;;33.90;37.10;;;;;;5398667;26;20030;-82
2024/04/09 11:48:28;;;;;;;9.85;2.40;;;34.10;37.80;;;;;;5402692;26;20000;-82
2024/04/09 11:50:58;;;;;;;7.32;2.67;;;34.40;35.40;;;;;;5400493;26;20058;-82
2024/04/09 11:53:25;;;;;;;6.25;2.30;;;34.60;36.70;;;;;;5398259;26;20019;-82
2024/04/09 11:55:56;;;;;;;6.38;2.55;;;35.00;36.20;;;;;;5390422;26;20073;-82
2024/04/09 11:58:23;;;;;;;5.15;2.50;;;35.30;36.10;;;;;;5409695;26;20040;-82
2024/04/09 12:00:50;;;;;;;8.60;3.05;;;35.50;35.10;;;;;;5411599;26;20008;-82
2024/04/09 12:03:19;;;;;;;4.85;2.20;;;35.80;35.70;;;;;;5413161;26;20020;-83
2024/04/09 12:05:46;;;;;;;7.97;2.80;;;36.20;34.90;;;;;;5381995;26;20044;-83
2024/04/09 12:08:13;;;;;;;11.93;2.70;;;36.40;31.90;;;;;;5384219;26;20749;-82
2024/04/09 12:10:40;;;;;;;8.05;2.30;;;36.60;33.90;;;;;;5387498;26;20042;-82
2024/04/09 12:13:07;;;;;;;10.25;2.65;;;36.90;33.40;;;;;;5397591;26;20007;-83
2024/04/09 12:15:34;;;;;;;11.32;2.58;;;37.30;30.80;;;;;;5410775;26;20015;-82
2024/04/09 12:18:04;;;;;;;6.03;2.30;;;37.70;31.50;;;;;;5402843;26;20039;-82
2024/04/09 12:20:34;;;;;;;5.55;2.35;;;37.80;30.80;;;;;;5389730;26;20489;-82
2024/04/09 12:23:03;;;;;;;13.20;2.83;;;38.10;30.30;;;;;;5398515;26;20016;-83
2024/04/09 12:25:30;;;;;;;9.40;2.78;;;38.40;29.80;;;;;;5398331;26;20055;-82
2024/04/09 12:27:59;;;;;;;8.07;2.78;;;38.60;30.00;;;;;;5401246;26;20232;-83
2024/04/09 12:30:27;;;;;;;7.50;2.50;;;38.70;29.00;;;;;;5394866;26;20004;-82
2024/04/09 12:32:54;;;;;;;7.75;2.63;;;39.00;29.60;;;;;;5393947;26;20345;-82
2024/04/09 12:35:22;;;;;;;10.00;2.20;;;39.20;29.00;;;;;;5392729;26;20309;-82
2024/04/09 12:37:50;;;;;;;8.85;2.53;;;39.10;29.10;;;;;;5389569;26;20390;-82
2024/04/09 12:40:17;;;;;;;6.75;2.55;;;39.10;28.50;;;;;;5411863;26;20428;-83
2024/04/09 12:42:44;;;;;;;7.50;2.30;;;39.20;28.60;;;;;;5416583;26;20022;-83
2024/04/09 12:45:11;;;;;;;11.93;2.55;;;39.40;28.30;;;;;;5407936;26;20073;-82
2024/04/09 12:47:38;;;;;;;7.32;2.60;;;39.60;27.20;;;;;;5412036;26;20700;-83
2024/04/09 12:50:06;;;;;;;11.05;2.67;;;39.50;27.00;;;;;;5410895;26;20011;-82
2024/04/09 12:52:34;;;;;;;7.93;2.45;;;39.70;27.20;;;;;;5393813;26;20031;-82
2024/04/09 12:55:04;;;;;;;9.18;2.10;;;39.90;27.70;;;;;;5391957;26;20082;-83
2024/04/09 12:57:31;;;;;;;7.85;1.77;;;40.10;27.40;;;;;;5393743;26;20003;-83
2024/04/09 12:59:59;;;;;;;5.88;1.60;;;40.30;25.60;;;;;;5396035;26;20320;-83
2024/04/09 13:02:46;;;;;;;3.13;1.55;;;40.60;26.70;;;;;;5393066;26;20015;-83
2024/04/09 13:05:16;;;;;;;11.77;2.10;;;40.60;26.50;;;;;;5397703;26;20368;-83
2024/04/09 13:07:44;;;;;;;7.28;1.90;;;40.90;26.70;;;;;;5389955;26;20096;-83
2024/04/09 13:10:10;;;;;;;9.52;2.17;;;41.30;25.10;;;;;;5388894;26;20004;-83